Time;durP1;ratioP1;P1;durP2;ratioP2;P2;SDS_P1;SDS_P2;PMS_P1;PMS_P2;Temp;Humidity;BMP_temperature;BMP_pressure;BME280_temperature;BME280_humidity;BME280_pressure;Samples;Min_cycle;Max_cycle;Signal;HPM_P1;HPM_P2
2021/10/15 00:00:07;;;;;;;;;138.00;126.50;27.20;34.10;;;;;;838096;23;6013;-94
2021/10/15 00:00:28;;;;;;;;;143.20;125.40;;;;;;;;837925;23;6498;-93
2021/10/15 00:00:49;;;;;;;;;148.00;133.50;27.20;34.00;;;;;;838216;23;6088;-89
2021/10/15 00:01:10;;;;;;;;;144.80;135.20;27.20;34.00;;;;;;833987;23;6135;-92
2021/10/15 00:01:30;;;;;;;;;142.25;130.00;27.20;33.90;;;;;;834744;23;6154;-93
2021/10/15 00:01:51;;;;;;;;;138.75;125.75;27.20;34.00;;;;;;838096;23;6122;-95
2021/10/15 00:02:12;;;;;;;;;160.75;139.25;27.00;33.80;;;;;;837762;23;6304;-86
2021/10/15 00:02:33;;;;;;;;;144.75;136.00;;;;;;;;838134;23;6046;-88
2021/10/15 00:02:55;;;;;;;;;147.20;134.00;27.30;34.20;;;;;;838836;23;5999;-83
2021/10/15 00:03:15;;;;;;;;;150.00;139.00;27.20;34.10;;;;;;842178;23;7650;-87
2021/10/15 00:03:36;;;;;;;;;152.50;132.50;27.30;34.20;;;;;;842256;23;5815;-91
2021/10/15 00:03:57;;;;;;;;;156.25;139.75;27.20;34.10;;;;;;842187;23;5671;-90
2021/10/15 00:04:18;;;;;;;;;155.67;140.33;;;;;;;;842428;23;6242;-91
2021/10/15 00:04:39;;;;;;;;;150.20;134.80;;;;;;;;842308;23;6546;-86
2021/10/15 00:05:00;;;;;;;;;141.80;131.00;29.30;35.90;;;;;;842280;23;6275;-86
2021/10/15 00:05:21;;;;;;;;;142.25;130.75;;;;;;;;842367;23;6197;-89
2021/10/15 00:05:41;;;;;;;;;148.75;126.75;27.20;34.40;;;;;;841965;23;7266;-88
2021/10/15 00:06:02;;;;;;;;;147.60;129.20;27.30;34.40;;;;;;842058;23;6101;-89
2021/10/15 00:06:23;;;;;;;;;143.50;132.25;;;;;;;;842267;23;6154;-87
2021/10/15 00:06:44;;;;;;;;;146.75;130.25;;;;;;;;842169;23;6032;-84
2021/10/15 00:07:05;;;;;;;;;138.60;129.80;27.20;34.30;;;;;;841596;23;6471;-88
2021/10/15 00:07:25;;;;;;;;;143.25;129.75;27.20;34.40;;;;;;841823;23;6348;-85
2021/10/15 00:07:46;;;;;;;;;141.00;128.00;;;;;;;;842390;23;5244;-84
2021/10/15 00:08:07;;;;;;;;;146.50;127.00;27.40;34.40;;;;;;842237;23;6144;-79
2021/10/15 00:08:28;;;;;;;;;137.75;123.75;27.20;34.20;;;;;;842092;23;6440;-84
2021/10/15 00:08:48;;;;;;;;;130.50;121.00;27.20;34.30;;;;;;842074;23;6142;-83
2021/10/15 00:09:09;;;;;;;;;141.00;125.00;27.20;35.20;;;;;;842055;23;6272;-83
2021/10/15 00:09:30;;;;;;;;;137.25;125.25;27.20;34.20;;;;;;841609;23;6384;-84
2021/10/15 00:09:50;;;;;;;;;144.20;129.80;27.20;34.30;;;;;;842121;23;6134;-83
2021/10/15 00:10:12;;;;;;;;;140.80;130.00;27.00;34.10;;;;;;842002;23;6139;-83
2021/10/15 00:10:33;;;;;;;;;142.20;127.00;27.20;34.30;;;;;;841854;23;7099;-83
2021/10/15 00:10:54;;;;;;;;;136.00;123.00;;;;;;;;841941;23;6106;-81
2021/10/15 00:11:15;;;;;;;;;134.00;118.50;27.20;34.20;;;;;;842107;23;6518;-81
2021/10/15 00:11:36;;;;;;;;;134.75;121.25;27.20;34.30;;;;;;842164;23;6242;-81
2021/10/15 00:11:57;;;;;;;;;130.00;118.00;27.20;34.40;;;;;;842054;23;6447;-81
2021/10/15 00:12:17;;;;;;;;;139.75;122.00;27.20;34.20;;;;;;842308;23;5472;-85
2021/10/15 00:12:38;;;;;;;;;125.67;118.33;;;;;;;;841917;23;6262;-83
2021/10/15 00:12:59;;;;;;;;;136.20;120.60;;;;;;;;842020;23;6633;-80
2021/10/15 00:13:20;;;;;;;;;134.00;120.00;27.20;34.20;;;;;;842167;23;6244;-83
2021/10/15 00:13:41;;;;;;;;;139.50;120.50;;;;;;;;842033;23;6050;-81
2021/10/15 00:14:02;;;;;;;;;143.40;124.80;27.20;34.20;;;;;;842153;23;6427;-82
2021/10/15 00:14:23;;;;;;;;;131.80;118.80;27.20;34.20;;;;;;841971;23;6929;-81
2021/10/15 00:14:45;;;;;;;;;137.00;118.25;27.10;34.10;;;;;;841863;23;6030;-85
2021/10/15 00:15:06;;;;;;;;;133.00;123.00;27.10;34.10;;;;;;841976;23;6474;-84
2021/10/15 00:15:27;;;;;;;;;124.20;116.20;;;;;;;;841881;23;6635;-81
2021/10/15 00:15:48;;;;;;;;;135.25;117.25;;;;;;;;842170;23;5724;-83
2021/10/15 00:16:08;;;;;;;;;126.00;115.50;27.10;34.30;;;;;;837933;23;6151;-87
2021/10/15 00:16:29;;;;;;;;;135.25;118.75;27.00;34.10;;;;;;838107;23;6114;-88
2021/10/15 00:16:50;;;;;;;;;121.50;112.50;27.20;34.20;;;;;;834120;23;6006;-85
2021/10/15 00:17:10;;;;;;;;;124.50;114.75;27.10;34.10;;;;;;834503;23;6036;-81
2021/10/15 00:17:31;;;;;;;;;135.25;115.50;27.10;34.30;;;;;;833946;23;6127;-81
2021/10/15 00:17:52;;;;;;;;;138.50;120.00;27.10;34.30;;;;;;834729;23;6241;-85
2021/10/15 00:18:12;;;;;;;;;123.50;116.00;27.10;34.40;;;;;;837918;23;6022;-81
2021/10/15 00:18:33;;;;;;;;;126.00;113.75;27.10;34.30;;;;;;838534;23;5579;-85
2021/10/15 00:18:54;;;;;;;;;128.60;114.80;;;;;;;;833761;23;6161;-85
2021/10/15 00:19:15;;;;;;;;;132.20;110.00;27.10;34.10;;;;;;834023;23;6427;-81
2021/10/15 00:19:36;;;;;;;;;124.20;109.60;27.10;34.20;;;;;;833909;23;6325;-80
2021/10/15 00:19:57;;;;;;;;;120.00;106.00;;;;;;;;833965;23;6161;-82
2021/10/15 00:20:17;;;;;;;;;115.20;105.20;27.10;34.10;;;;;;829827;23;6277;-84
2021/10/15 00:20:38;;;;;;;;;114.25;106.50;;;;;;;;831140;23;6008;-83
2021/10/15 00:20:59;;;;;;;;;120.20;109.60;27.10;34.10;;;;;;838095;23;6231;-94
2021/10/15 00:21:20;;;;;;;;;115.75;107.00;27.10;34.10;;;;;;838097;23;5997;-85
2021/10/15 00:21:41;;;;;;;;;119.40;109.60;26.90;34.00;;;;;;837765;23;6129;-84
2021/10/15 00:22:01;;;;;;;;;116.20;108.00;27.00;35.10;;;;;;838356;23;7031;-82
2021/10/15 00:22:22;;;;;;;;;122.00;107.80;27.00;34.10;;;;;;842327;23;6261;-89
2021/10/15 00:22:43;;;;;;;;;120.50;112.00;27.00;34.10;;;;;;842255;23;6219;-79
2021/10/15 00:23:04;;;;;;;;;117.50;105.75;;;;;;;;842175;23;6278;-81
2021/10/15 00:23:25;;;;;;;;;130.00;116.00;27.10;34.40;;;;;;842219;23;5306;-89
2021/10/15 00:23:45;;;;;;;;;122.80;110.00;27.10;34.30;;;;;;842554;23;6283;-82
2021/10/15 00:24:06;;;;;;;;;123.75;109.50;27.00;34.10;;;;;;842059;23;6171;-79
2021/10/15 00:24:27;;;;;;;;;111.00;103.33;27.10;35.20;;;;;;842001;23;6235;-81
2021/10/15 00:24:48;;;;;;;;;118.00;105.50;;;;;;;;842202;23;6237;-79
2021/10/15 00:25:08;;;;;;;;;111.00;104.60;27.10;34.30;;;;;;842196;23;6145;-81
2021/10/15 00:25:29;;;;;;;;;113.75;105.25;27.20;34.40;;;;;;842289;23;5556;-85
2021/10/15 00:25:53;;;;;;;;;113.60;104.60;27.00;35.30;;;;;;842398;23;6263;-81
2021/10/15 00:26:14;;;;;;;;;115.20;103.60;27.40;35.20;;;;;;842117;23;6454;-84
2021/10/15 00:26:35;;;;;;;;;111.00;105.25;;;;;;;;842270;23;6952;-83
2021/10/15 00:26:55;;;;;;;;;117.20;103.20;27.00;33.90;;;;;;842137;23;6137;-83
2021/10/15 00:27:16;;;;;;;;;127.50;109.75;27.00;33.90;;;;;;842297;23;7642;-83
2021/10/15 00:27:37;;;;;;;;;121.00;106.25;27.10;34.10;;;;;;842171;23;6448;-85
2021/10/15 00:27:57;;;;;;;;;113.00;98.50;27.00;34.00;;;;;;841985;23;6251;-88
2021/10/15 00:28:18;;;;;;;;;111.00;100.25;;;;;;;;842347;23;6119;-89
2021/10/15 00:28:42;;;;;;;;;115.00;105.00;;;;;;;;842359;23;5528;-83
2021/10/15 00:29:05;;;;;;;;;113.80;104.60;27.00;34.10;;;;;;842064;23;6452;-84
2021/10/15 00:29:26;;;;;;;;;112.40;103.40;;;;;;;;841964;23;7212;-84
2021/10/15 00:29:47;;;;;;;;;111.50;104.00;;;;;;;;842356;23;6246;-82
2021/10/15 00:30:08;;;;;;;;;110.00;100.75;;;;;;;;842059;23;6687;-84
2021/10/15 00:30:29;;;;;;;;;106.80;98.60;;;;;;;;842134;23;6214;-86
2021/10/15 00:30:50;;;;;;;;;113.00;100.80;27.00;34.10;;;;;;842338;23;6264;-82
2021/10/15 00:31:11;;;;;;;;;118.00;104.50;27.10;34.20;;;;;;842175;23;6268;-87
2021/10/15 00:31:32;;;;;;;;;114.80;102.40;27.00;34.30;;;;;;842051;23;6493;-86
2021/10/15 00:31:53;;;;;;;;;114.00;104.60;;;;;;;;841953;23;6258;-85
2021/10/15 00:32:15;;;;;;;;;114.00;103.40;;;;;;;;842013;23;7175;-87
2021/10/15 00:32:35;;;;;;;;;123.40;107.40;27.00;34.10;;;;;;841984;23;6133;-87
2021/10/15 00:32:56;;;;;;;;;115.75;106.75;27.00;34.20;;;;;;842135;23;6107;-87
2021/10/15 00:33:17;;;;;;;;;113.00;104.00;;;;;;;;841984;23;6105;-86
2021/10/15 00:33:38;;;;;;;;;112.25;103.00;;;;;;;;842006;23;5081;-84
2021/10/15 00:33:59;;;;;;;;;118.25;106.00;;;;;;;;842115;23;5635;-84
2021/10/15 00:34:20;;;;;;;;;111.00;102.40;27.10;34.20;;;;;;842386;23;6316;-87
2021/10/15 00:34:42;;;;;;;;;111.50;102.00;27.10;34.30;;;;;;842279;23;6139;-88
2021/10/15 00:35:03;;;;;;;;;106.00;98.75;27.00;34.20;;;;;;842137;23;6845;-84
2021/10/15 00:35:25;;;;;;;;;116.75;105.00;27.10;34.30;;;;;;842220;23;6167;-83
2021/10/15 00:35:46;;;;;;;;;104.80;99.00;27.00;34.20;;;;;;841963;23;7950;-84
2021/10/15 00:36:07;;;;;;;;;103.50;97.50;27.10;34.20;;;;;;842115;23;6179;-84
2021/10/15 00:36:28;;;;;;;;;105.00;97.25;;;;;;;;842133;23;6805;-83
2021/10/15 00:36:49;;;;;;;;;107.50;97.00;;;;;;;;842242;23;6142;-84
2021/10/15 00:37:10;;;;;;;;;110.80;102.60;;;;;;;;842175;23;6502;-81
2021/10/15 00:37:31;;;;;;;;;110.00;96.25;27.00;34.30;;;;;;842134;23;6284;-81
2021/10/15 00:37:52;;;;;;;;;103.50;95.50;27.00;34.20;;;;;;842052;23;6506;-82
2021/10/15 00:38:14;;;;;;;;;102.75;96.75;27.00;34.30;;;;;;842142;23;6806;-83
2021/10/15 00:38:35;;;;;;;;;105.00;93.75;;;;;;;;842150;23;6447;-83
2021/10/15 00:38:56;;;;;;;;;104.00;97.50;27.00;34.00;;;;;;841897;23;4947;-81
2021/10/15 00:39:16;;;;;;;;;110.00;96.00;27.00;33.90;;;;;;842003;23;6207;-83
2021/10/15 00:39:37;;;;;;;;;107.80;93.40;27.10;34.10;;;;;;842106;23;6183;-83
2021/10/15 00:39:58;;;;;;;;;104.50;96.50;27.10;34.00;;;;;;842158;23;6224;-82
2021/10/15 00:40:19;;;;;;;;;110.50;96.25;27.10;34.00;;;;;;842116;23;5467;-83
2021/10/15 00:40:40;;;;;;;;;102.60;92.00;27.10;34.00;;;;;;841986;23;6808;-85
2021/10/15 00:41:01;;;;;;;;;100.25;88.25;27.10;34.10;;;;;;842023;23;6225;-84
2021/10/15 00:41:22;;;;;;;;;105.00;94.50;;;;;;;;841930;23;6226;-78
2021/10/15 00:41:42;;;;;;;;;104.00;99.00;27.20;34.30;;;;;;842078;23;6256;-80
2021/10/15 00:42:07;;;;;;;;;97.60;94.20;27.30;34.30;;;;;;842015;23;6287;-78
2021/10/15 00:42:27;;;;;;;;;104.00;98.00;27.10;34.10;;;;;;842130;23;6401;-78
2021/10/15 00:42:48;;;;;;;;;105.50;95.50;;;;;;;;842318;23;6181;-81
2021/10/15 00:43:09;;;;;;;;;107.40;101.40;27.10;34.00;;;;;;841940;23;6889;-79
2021/10/15 00:43:30;;;;;;;;;109.20;95.60;27.10;34.20;;;;;;842063;23;6259;-80
2021/10/15 00:44:10;;;;;;;;;110.50;98.50;27.10;34.10;;;;;;842274;23;5954;-80
2021/10/15 00:44:30;;;;;;;;;106.20;96.60;27.10;35.20;;;;;;841937;23;6864;-77
2021/10/15 00:44:51;;;;;;;;;103.25;98.00;;;;;;;;842281;23;7455;-77
2021/10/15 00:45:12;;;;;;;;;104.80;97.80;27.00;34.10;;;;;;842369;23;6821;-78
2021/10/15 00:45:33;;;;;;;;;101.00;95.00;27.00;34.30;;;;;;842141;23;6106;-79
2021/10/15 00:45:54;;;;;;;;;103.25;94.00;;;;;;;;841704;23;5287;-78
2021/10/15 00:46:15;;;;;;;;;110.40;95.20;27.10;34.10;;;;;;842237;23;6357;-78
2021/10/15 00:46:39;;;;;;;;;94.75;88.00;27.10;34.10;;;;;;841778;23;6026;-80
2021/10/15 00:46:59;;;;;;;;;96.40;92.80;27.00;34.10;;;;;;841833;23;6880;-79
2021/10/15 00:47:20;;;;;;;;;109.50;98.75;27.00;34.00;;;;;;842096;23;5971;-80
2021/10/15 00:47:41;;;;;;;;;101.50;93.50;27.00;34.00;;;;;;841890;23;6078;-79
2021/10/15 00:48:02;;;;;;;;;108.75;98.00;;;;;;;;837164;23;6707;-79
2021/10/15 00:48:22;;;;;;;;;101.00;92.50;27.00;34.20;;;;;;837958;23;6037;-78
2021/10/15 00:48:43;;;;;;;;;100.50;91.25;;;;;;;;838060;23;6083;-75
2021/10/15 00:49:06;;;;;;;;;100.50;89.25;27.00;34.20;;;;;;833658;23;5731;-80
2021/10/15 00:49:27;;;;;;;;;100.40;94.60;27.00;35.20;;;;;;833705;23;6646;-78
2021/10/15 00:49:48;;;;;;;;;100.60;95.20;27.10;34.10;;;;;;835096;23;6081;-77
2021/10/15 00:50:09;;;;;;;;;104.50;97.50;27.10;34.10;;;;;;838101;23;5989;-78
2021/10/15 00:50:30;;;;;;;;;95.75;90.00;27.10;34.10;;;;;;838042;23;6452;-78
2021/10/15 00:50:52;;;;;;;;;114.50;98.25;27.10;34.10;;;;;;839337;23;5734;-80
2021/10/15 00:51:13;;;;;;;;;108.40;95.00;27.10;34.10;;;;;;841979;23;6641;-81
2021/10/15 00:51:34;;;;;;;;;99.00;92.00;;;;;;;;841961;23;6283;-80
2021/10/15 00:51:55;;;;;;;;;97.80;87.80;27.10;34.00;;;;;;842100;23;7051;-78
2021/10/15 00:52:16;;;;;;;;;102.75;94.50;27.00;34.00;;;;;;842246;23;6111;-77
2021/10/15 00:52:38;;;;;;;;;103.75;94.50;27.10;34.10;;;;;;842147;23;6218;-76
2021/10/15 00:52:59;;;;;;;;;95.00;89.00;27.00;33.90;;;;;;842070;23;8226;-77
2021/10/15 00:53:20;;;;;;;;;102.75;92.75;27.00;33.90;;;;;;842314;23;6225;-79
2021/10/15 00:53:41;;;;;;;;;103.25;96.00;27.10;34.10;;;;;;841944;23;6110;-76
2021/10/15 00:54:03;;;;;;;;;103.00;93.75;27.30;34.10;;;;;;841941;23;6321;-77
2021/10/15 00:54:24;;;;;;;;;98.50;86.25;;;;;;;;841928;23;6566;-78
2021/10/15 00:54:47;;;;;;;;;96.80;90.40;27.00;33.90;;;;;;842239;23;6193;-78
2021/10/15 00:55:08;;;;;;;;;96.20;88.60;27.10;34.00;;;;;;841856;23;7727;-76
2021/10/15 00:55:30;;;;;;;;;104.25;93.50;;;;;;;;842099;23;6207;-77
2021/10/15 00:55:51;;;;;;;;;99.00;87.50;;;;;;;;842132;23;6582;-78
2021/10/15 00:56:13;;;;;;;;;98.50;84.75;27.00;34.10;;;;;;842193;23;6737;-78
2021/10/15 00:56:34;;;;;;;;;100.80;90.60;;;;;;;;842042;23;7382;-76
2021/10/15 00:56:55;;;;;;;;;99.00;88.20;27.10;34.00;;;;;;842245;23;6780;-79
2021/10/15 00:57:18;;;;;;;;;104.40;94.60;27.00;33.80;;;;;;842234;23;6197;-78
2021/10/15 00:57:38;;;;;;;;;97.60;90.40;27.10;33.90;;;;;;841854;23;6604;-78
2021/10/15 00:57:59;;;;;;;;;106.00;96.33;27.10;33.90;;;;;;841970;23;5652;-79
2021/10/15 00:58:20;;;;;;;;;95.75;90.00;27.10;34.00;;;;;;841984;23;6410;-80
2021/10/15 00:58:41;;;;;;;;;94.25;88.75;27.10;33.90;;;;;;842139;23;6188;-80
2021/10/15 00:59:02;;;;;;;;;103.20;95.40;27.10;33.80;;;;;;841771;23;8465;-81
2021/10/15 00:59:23;;;;;;;;;104.50;93.00;;;;;;;;841892;23;6017;-79
2021/10/15 00:59:44;;;;;;;;;95.00;84.75;27.10;33.80;;;;;;841753;23;6105;-78
2021/10/15 01:00:05;;;;;;;;;97.00;88.00;;;;;;;;841768;23;6720;-80
2021/10/15 01:00:26;;;;;;;;;93.20;84.00;27.00;33.90;;;;;;841970;23;5905;-79
2021/10/15 01:00:47;;;;;;;;;100.00;91.50;27.10;33.90;;;;;;841921;23;6048;-79
2021/10/15 01:01:07;;;;;;;;;102.00;91.50;27.10;33.80;;;;;;842073;23;6200;-79
2021/10/15 01:01:29;;;;;;;;;94.00;87.00;27.10;34.00;;;;;;842036;23;6275;-80
2021/10/15 01:01:50;;;;;;;;;93.50;88.00;27.10;33.90;;;;;;842093;23;6625;-80
2021/10/15 01:02:10;;;;;;;;;95.00;88.00;27.10;33.80;;;;;;842088;23;6114;-79
2021/10/15 01:02:31;;;;;;;;;94.80;88.20;27.10;33.80;;;;;;842183;23;6228;-82
2021/10/15 01:02:52;;;;;;;;;94.00;90.25;27.10;33.90;;;;;;841957;23;5896;-80
2021/10/15 01:03:13;;;;;;;;;91.00;85.60;27.00;33.60;;;;;;842287;23;6208;-81
2021/10/15 01:03:34;;;;;;;;;102.25;93.25;27.10;33.80;;;;;;842024;23;6165;-80
2021/10/15 01:04:00;;;;;;;;;97.20;87.60;27.20;33.80;;;;;;841955;23;6395;-79
2021/10/15 01:04:21;;;;;;;;;93.40;86.40;;;;;;;;842070;23;7218;-81
2021/10/15 01:04:42;;;;;;;;;97.60;91.00;;;;;;;;842307;23;6240;-81
2021/10/15 01:05:04;;;;;;;;;98.20;87.20;27.20;33.80;;;;;;842042;23;6194;-83
2021/10/15 01:05:25;;;;;;;;;91.50;84.00;26.80;33.60;;;;;;842038;23;6762;-80
2021/10/15 01:05:46;;;;;;;;;93.00;81.00;;;;;;;;842066;23;6362;-82
2021/10/15 01:06:08;;;;;;;;;93.25;87.00;27.20;33.80;;;;;;837998;23;5000;-82
2021/10/15 01:06:30;;;;;;;;;97.75;87.00;27.20;33.70;;;;;;837787;23;7809;-84
2021/10/15 01:06:52;;;;;;;;;96.25;87.75;;;;;;;;837371;23;6713;-82
2021/10/15 01:07:13;;;;;;;;;102.50;94.25;27.20;33.70;;;;;;837719;23;4893;-84
2021/10/15 01:07:33;;;;;;;;;101.67;90.67;27.20;33.70;;;;;;833597;23;5188;-83
2021/10/15 01:07:56;;;;;;;;;91.00;83.25;27.20;33.80;;;;;;835072;23;5678;-82
2021/10/15 01:08:17;;;;;;;;;85.75;78.75;;;;;;;;837727;23;6788;-78
2021/10/15 01:08:44;;;;;;;;;91.75;87.75;27.20;33.60;;;;;;837932;23;6139;-81
2021/10/15 01:09:05;;;;;;;;;93.00;86.25;27.20;33.80;;;;;;837850;23;7113;-80
2021/10/15 01:09:26;;;;;;;;;91.75;84.00;;;;;;;;840259;23;7495;-82
2021/10/15 01:09:47;;;;;;;;;99.00;87.20;27.20;33.60;;;;;;842187;23;6380;-85
2021/10/15 01:10:08;;;;;;;;;97.40;86.80;27.20;33.60;;;;;;842250;23;6320;-87
2021/10/15 01:10:29;;;;;;;;;93.60;85.60;;;;;;;;842105;23;6344;-82
2021/10/15 01:10:50;;;;;;;;;91.40;85.00;27.20;33.60;;;;;;842237;23;6308;-83
2021/10/15 01:11:13;;;;;;;;;98.40;89.60;27.30;33.70;;;;;;842158;23;6182;-83
2021/10/15 01:11:35;;;;;;;;;89.50;84.25;;;;;;;;842075;23;6426;-82
2021/10/15 01:11:56;;;;;;;;;88.80;82.00;;;;;;;;842009;23;6607;-83
2021/10/15 01:12:17;;;;;;;;;91.00;81.75;27.20;33.60;;;;;;842269;23;5837;-81
2021/10/15 01:12:39;;;;;;;;;93.50;86.50;27.20;33.50;;;;;;841915;23;6202;-85
2021/10/15 01:13:00;;;;;;;;;103.00;85.25;27.20;33.60;;;;;;842241;23;6421;-88
2021/10/15 01:13:22;;;;;;;;;96.00;86.25;27.20;33.60;;;;;;842190;23;6487;-81
2021/10/15 01:13:43;;;;;;;;;92.60;85.80;27.20;33.70;;;;;;841698;23;6877;-91
2021/10/15 01:14:04;;;;;;;;;92.00;84.50;;;;;;;;841846;23;6636;-82
2021/10/15 01:14:25;;;;;;;;;101.00;89.00;27.20;33.70;;;;;;842025;23;5948;-84
2021/10/15 01:14:46;;;;;;;;;92.00;86.75;27.20;33.70;;;;;;842138;23;5945;-89
2021/10/15 01:15:07;;;;;;;;;85.25;80.50;27.20;33.70;;;;;;842055;23;6044;-86
2021/10/15 01:15:27;;;;;;;;;98.20;90.00;27.10;33.70;;;;;;842023;23;6422;-87
2021/10/15 01:15:48;;;;;;;;;93.00;88.75;27.20;33.70;;;;;;842463;23;6226;-85
2021/10/15 01:16:10;;;;;;;;;87.00;80.25;27.20;33.80;;;;;;842164;23;6112;-84
2021/10/15 01:16:32;;;;;;;;;86.00;78.00;;;;;;;;841861;23;6548;-86
2021/10/15 01:16:53;;;;;;;;;92.80;84.80;27.00;33.50;;;;;;842107;23;6645;-85
2021/10/15 01:17:14;;;;;;;;;89.25;82.00;27.20;33.60;;;;;;842297;23;5962;-79
2021/10/15 01:17:34;;;;;;;;;99.00;89.25;27.20;33.80;;;;;;842126;23;5684;-85
2021/10/15 01:17:55;;;;;;;;;91.50;84.00;27.20;33.60;;;;;;837828;23;6045;-85
2021/10/15 01:18:16;;;;;;;;;90.25;83.75;27.10;33.60;;;;;;838133;23;5377;-81
2021/10/15 01:18:38;;;;;;;;;87.25;80.75;27.20;33.70;;;;;;838056;23;5952;-83
2021/10/15 01:19:02;;;;;;;;;91.00;82.75;27.20;34.90;;;;;;837850;23;6659;-84
2021/10/15 01:19:23;;;;;;;;;97.20;84.40;27.30;33.70;;;;;;838027;23;6455;-86
2021/10/15 01:19:43;;;;;;;;;92.80;84.80;27.20;33.60;;;;;;839742;23;6193;-88
2021/10/15 01:20:05;;;;;;;;;94.00;85.00;27.20;33.70;;;;;;842144;23;5408;-81
2021/10/15 01:20:26;;;;;;;;;86.50;81.75;;;;;;;;837925;23;6619;-84
2021/10/15 01:20:48;;;;;;;;;90.00;82.50;27.20;33.70;;;;;;837916;23;5940;-85
2021/10/15 01:21:11;;;;;;;;;87.25;80.75;26.90;33.40;;;;;;837658;23;6621;-84
2021/10/15 01:21:32;;;;;;;;;89.00;84.50;27.20;33.70;;;;;;837733;23;6427;-81
2021/10/15 01:21:52;;;;;;;;;91.40;83.20;27.20;33.70;;;;;;837962;23;6651;-84
2021/10/15 01:22:13;;;;;;;;;90.50;83.25;27.20;33.80;;;;;;839608;23;6078;-84
2021/10/15 01:22:34;;;;;;;;;97.00;84.00;;;;;;;;842179;23;6094;-78
2021/10/15 01:22:55;;;;;;;;;92.00;83.50;27.20;33.70;;;;;;842141;23;6088;-85
2021/10/15 01:23:15;;;;;;;;;91.20;78.80;27.30;33.80;;;;;;842249;23;6201;-89
2021/10/15 01:23:39;;;;;;;;;87.75;83.00;27.20;33.70;;;;;;842353;23;6380;-89
2021/10/15 01:24:01;;;;;;;;;86.20;79.00;27.20;33.60;;;;;;842103;23;6420;-90
2021/10/15 01:24:22;;;;;;;;;93.00;84.50;;;;;;;;842281;23;7985;-91
2021/10/15 01:24:45;;;;;;;;;93.25;86.25;27.20;33.70;;;;;;842527;23;6227;-89
2021/10/15 01:25:06;;;;;;;;;83.60;77.40;27.20;33.70;;;;;;842078;23;6799;-85
2021/10/15 01:25:32;;;;;;;;;95.20;83.80;27.20;33.80;;;;;;842039;23;6228;-89
2021/10/15 01:25:54;;;;;;;;;90.80;83.80;27.10;33.70;;;;;;841993;23;6404;-88
2021/10/15 01:26:16;;;;;;;;;93.40;83.80;27.10;33.70;;;;;;842138;23;6579;-86
2021/10/15 01:26:36;;;;;;;;;95.75;87.00;27.10;33.70;;;;;;842131;23;6447;-88
2021/10/15 01:27:05;;;;;;;;;90.20;82.00;27.20;34.70;;;;;;842083;23;6248;-90
2021/10/15 01:27:26;;;;;;;;;89.40;78.40;27.10;33.70;;;;;;842196;23;6617;-92
2021/10/15 01:27:46;;;;;;;;;90.50;80.75;27.10;33.80;;;;;;842363;23;6144;-91
2021/10/15 01:28:07;;;;;;;;;84.67;79.33;;;;;;;;841970;23;6072;-91
2021/10/15 01:28:29;;;;;;;;;86.75;81.75;27.10;33.70;;;;;;842243;23;6163;-91
2021/10/15 01:28:53;;;;;;;;;87.00;81.60;;;;;;;;842192;23;6417;-86
2021/10/15 01:29:13;;;;;;;;;85.75;79.25;27.00;33.60;;;;;;842047;23;6646;-81
2021/10/15 01:29:35;;;;;;;;;93.00;85.00;27.20;33.90;;;;;;842214;23;6086;-83
2021/10/15 01:29:56;;;;;;;;;91.75;82.50;27.20;33.80;;;;;;842004;23;6195;-87
2021/10/15 01:30:17;;;;;;;;;85.67;75.00;27.10;33.60;;;;;;842242;23;6104;-90
2021/10/15 01:30:37;;;;;;;;;86.50;80.00;27.10;33.70;;;;;;842169;23;6373;-89
2021/10/15 01:30:59;;;;;;;;;92.50;82.00;27.10;33.60;;;;;;842227;23;6114;-91
2021/10/15 01:31:21;;;;;;;;;95.00;85.00;27.20;33.80;;;;;;842256;23;6671;-87
2021/10/15 01:31:41;;;;;;;;;95.25;81.00;27.10;33.70;;;;;;842234;23;6443;-86
2021/10/15 01:32:04;;;;;;;;;87.00;76.25;27.20;33.70;;;;;;837693;23;5761;-88
2021/10/15 01:32:24;;;;;;;;;92.60;82.80;27.20;33.80;;;;;;837752;23;6592;-82
2021/10/15 01:32:45;;;;;;;;;86.00;76.00;27.20;33.70;;;;;;838076;23;6067;-86
2021/10/15 01:33:06;;;;;;;;;90.25;81.00;27.50;33.90;;;;;;837833;23;6234;-86
2021/10/15 01:33:27;;;;;;;;;86.33;77.33;27.20;33.80;;;;;;837735;23;5803;-90
2021/10/15 01:33:48;;;;;;;;;90.00;81.00;27.10;33.70;;;;;;838744;23;6643;-88
2021/10/15 01:34:09;;;;;;;;;92.00;81.75;27.10;33.80;;;;;;842171;23;6101;-90
2021/10/15 01:34:30;;;;;;;;;86.60;77.20;27.20;33.70;;;;;;842155;23;6184;-82
2021/10/15 01:34:51;;;;;;;;;92.40;83.20;27.20;33.70;;;;;;842298;23;6232;-85
2021/10/15 01:35:13;;;;;;;;;91.25;81.00;27.20;33.80;;;;;;842200;23;6880;-84
2021/10/15 01:35:33;;;;;;;;;85.75;78.50;27.10;33.60;;;;;;841856;23;6426;-83
2021/10/15 01:35:54;;;;;;;;;87.75;82.50;27.20;33.70;;;;;;841749;23;6655;-79
2021/10/15 01:36:15;;;;;;;;;84.20;77.60;27.10;33.60;;;;;;841785;23;6593;-84
2021/10/15 01:36:36;;;;;;;;;86.20;81.00;27.10;33.60;;;;;;841916;23;6018;-86
2021/10/15 01:36:57;;;;;;;;;85.40;78.80;27.10;33.60;;;;;;841911;23;6150;-86
2021/10/15 01:37:18;;;;;;;;;85.75;81.50;27.00;33.60;;;;;;841958;23;6874;-86
2021/10/15 01:37:39;;;;;;;;;83.80;75.80;27.10;33.70;;;;;;841908;23;6280;-85
2021/10/15 01:37:59;;;;;;;;;92.33;82.00;27.10;33.70;;;;;;842146;23;6107;-86
2021/10/15 01:38:20;;;;;;;;;85.75;76.25;27.10;33.80;;;;;;842135;23;6210;-82
2021/10/15 01:38:41;;;;;;;;;87.67;77.33;27.10;34.60;;;;;;842042;23;6164;-83
2021/10/15 01:39:02;;;;;;;;;85.00;75.75;26.90;33.60;;;;;;841944;23;6389;-82
2021/10/15 01:39:23;;;;;;;;;86.25;76.50;27.10;33.70;;;;;;841905;23;6603;-81
2021/10/15 01:39:44;;;;;;;;;90.00;77.20;27.10;33.80;;;;;;842126;23;6780;-79
2021/10/15 01:40:05;;;;;;;;;84.00;76.50;27.10;33.80;;;;;;837880;23;5447;-82
2021/10/15 01:40:26;;;;;;;;;86.75;81.00;27.20;33.80;;;;;;837742;23;6026;-81
2021/10/15 01:40:47;;;;;;;;;88.40;79.00;27.10;33.70;;;;;;837882;23;6103;-90
2021/10/15 01:41:09;;;;;;;;;86.00;76.25;27.10;33.80;;;;;;837811;23;5980;-87
2021/10/15 01:41:29;;;;;;;;;85.00;74.75;27.10;33.70;;;;;;837684;23;6631;-85
2021/10/15 01:41:50;;;;;;;;;87.00;75.00;;;;;;;;838971;23;6066;-84
2021/10/15 01:42:53;;;;;;;;;85.80;76.80;27.10;33.80;;;;;;842146;23;6404;-90
2021/10/15 01:43:24;;;;;;;;;84.00;76.00;27.10;33.70;;;;;;841976;23;6308;-82
2021/10/15 01:43:45;;;;;;;;;84.00;74.80;27.40;33.90;;;;;;842139;23;8593;-87
2021/10/15 01:44:06;;;;;;;;;85.00;74.25;;;;;;;;842115;23;6670;-79
2021/10/15 01:44:28;;;;;;;;;85.00;75.25;27.10;33.60;;;;;;842086;23;6068;-86
2021/10/15 01:44:49;;;;;;;;;84.00;75.75;27.20;33.70;;;;;;842100;23;6249;-85
2021/10/15 01:45:09;;;;;;;;;82.00;71.00;27.20;33.60;;;;;;842076;23;6105;-88
2021/10/15 01:45:32;;;;;;;;;87.50;76.25;27.10;33.70;;;;;;842059;23;6201;-87
2021/10/15 01:45:53;;;;;;;;;86.75;78.50;27.00;33.50;;;;;;842028;23;6853;-87
2021/10/15 01:46:14;;;;;;;;;85.75;75.75;27.00;33.60;;;;;;842122;23;7573;-80
2021/10/15 01:46:35;;;;;;;;;85.50;74.50;27.10;33.70;;;;;;841958;23;6359;-84
2021/10/15 01:46:56;;;;;;;;;83.50;75.00;27.10;33.50;;;;;;841956;23;6449;-86
2021/10/15 01:47:16;;;;;;;;;85.33;75.33;27.20;33.70;;;;;;842114;23;6428;-88
2021/10/15 01:47:37;;;;;;;;;85.75;74.00;;;;;;;;842008;23;6425;-86
2021/10/15 01:48:00;;;;;;;;;91.00;75.75;26.90;33.40;;;;;;842086;23;6081;-81
2021/10/15 01:48:21;;;;;;;;;84.25;73.50;27.10;33.60;;;;;;842075;23;6442;-80
2021/10/15 01:48:41;;;;;;;;;80.60;70.00;27.20;33.60;;;;;;842169;23;6236;-80
2021/10/15 01:49:02;;;;;;;;;92.00;80.00;27.10;33.60;;;;;;842093;23;5605;-80
2021/10/15 01:49:23;;;;;;;;;82.50;73.00;27.10;33.60;;;;;;842129;23;5799;-78
2021/10/15 01:49:43;;;;;;;;;80.00;72.00;27.10;33.60;;;;;;837756;23;6055;-82
2021/10/15 01:50:05;;;;;;;;;84.00;73.75;27.10;33.70;;;;;;837610;23;6236;-81
2021/10/15 01:50:27;;;;;;;;;85.00;74.25;27.10;33.70;;;;;;837701;23;6634;-84
2021/10/15 01:50:49;;;;;;;;;81.25;72.25;27.10;34.60;;;;;;833742;23;8979;-87
2021/10/15 01:51:09;;;;;;;;;82.00;72.50;27.30;33.80;;;;;;833860;23;7745;-88
2021/10/15 01:51:30;;;;;;;;;82.00;73.50;27.00;33.60;;;;;;834855;23;6237;-87
2021/10/15 01:51:51;;;;;;;;;80.75;73.00;27.00;33.60;;;;;;837903;23;6045;-85
2021/10/15 01:52:12;;;;;;;;;81.25;71.50;;;;;;;;837625;23;6030;-85
2021/10/15 01:52:33;;;;;;;;;85.80;76.20;27.00;33.60;;;;;;838497;23;6604;-86
2021/10/15 01:52:54;;;;;;;;;83.60;72.80;27.00;33.70;;;;;;842008;23;6280;-82
2021/10/15 01:53:15;;;;;;;;;83.20;76.00;27.00;33.60;;;;;;842020;23;6184;-83